Saint-Cesaire, Canada
Current Conditions -  °F | °C
As of 12:00 PM on Monday 22 Dec 2014 (Local Time) from CYHU Reporting Station
Clear Clear  
Wind Chill:   Ceiling: Unl
Heat Index: 19°   Visibility: 9mi
Dew Point: 14°   Wind: 9mph
Humidity: 80%   Direction: 30°NNE
Pressure: 30.4"   Gusts: NA
Location:  45.4°N, 73°W
Report Text: CYHU 221700Z AUTO 03008KT 9SM CLR M07/M10 A3040 RMK SLP296
Loading
Personal Weather Stations






























Interactive Weather Map New forecast layout! Learn more

10-Day Weather Forecast

Advertisements
Track Severe Weather on mobile